Time;durP1;ratioP1;P1;durP2;ratioP2;P2;SDS_P1;SDS_P2;PMS_P1;PMS_P2;Temp;Humidity;BMP_temperature;BMP_pressure;BME280_temperature;BME280_humidity;BME280_pressure;Samples;Min_cycle;Max_cycle;Signal;HPM_P1;HPM_P2
2022/12/27 00:00:58;;;;;;;1.62;1.52;;;3.60;99.90;;;;;;483098;245;27615;-74
2022/12/27 00:02:59;;;;;;;2.70;1.67;;;3.60;99.90;;;;;;483081;245;27531;-74
2022/12/27 00:05:01;;;;;;;3.70;1.90;;;3.50;99.90;;;;;;483061;245;28011;-75
2022/12/27 00:07:02;;;;;;;2.30;1.90;;;3.40;99.90;;;;;;483085;245;27986;-75
2022/12/27 00:09:03;;;;;;;4.90;2.03;;;3.40;99.90;;;;;;483132;245;28125;-74
2022/12/27 00:11:04;;;;;;;7.03;2.33;;;3.40;99.90;;;;;;483102;244;29107;-74
2022/12/27 00:13:06;;;;;;;2.47;1.90;;;3.40;99.90;;;;;;483088;245;27538;-75
2022/12/27 00:15:07;;;;;;;4.75;2.03;;;3.30;99.90;;;;;;483052;245;27507;-74
2022/12/27 00:17:08;;;;;;;2.90;1.80;;;3.30;99.90;;;;;;482993;245;27649;-74
2022/12/27 00:19:09;;;;;;;3.85;2.15;;;3.30;99.90;;;;;;483049;245;27690;-76
2022/12/27 00:21:11;;;;;;;4.50;1.98;;;3.30;99.90;;;;;;483079;245;27650;-76
2022/12/27 00:23:12;;;;;;;3.35;1.67;;;3.20;99.90;;;;;;483049;245;27499;-76
2022/12/27 00:25:13;;;;;;;3.22;1.77;;;3.30;99.90;;;;;;483077;245;27580;-74
2022/12/27 00:27:14;;;;;;;6.12;2.10;;;3.30;99.90;;;;;;483008;245;27543;-76
2022/12/27 00:29:16;;;;;;;7.80;2.10;;;3.20;99.90;;;;;;483112;245;27550;-78
2022/12/27 00:31:17;;;;;;;3.30;2.33;;;3.20;99.90;;;;;;483094;245;27500;-74
2022/12/27 00:33:18;;;;;;;2.37;2.00;;;3.20;99.90;;;;;;483048;245;28005;-75
2022/12/27 00:35:19;;;;;;;3.97;2.05;;;3.20;99.90;;;;;;483059;245;27954;-75
2022/12/27 00:37:21;;;;;;;3.15;1.60;;;3.20;99.90;;;;;;482913;245;28094;-74
2022/12/27 00:39:22;;;;;;;2.70;1.73;;;3.10;99.90;;;;;;482969;245;29144;-76
2022/12/27 00:41:23;;;;;;;2.00;1.80;;;3.10;99.90;;;;;;482917;245;27545;-76
2022/12/27 00:43:24;;;;;;;8.10;2.70;;;3.10;99.90;;;;;;482843;245;27552;-76
2022/12/27 00:45:26;;;;;;;4.65;2.45;;;3.00;99.90;;;;;;482830;245;27491;-74
2022/12/27 00:47:27;;;;;;;5.10;2.30;;;3.00;99.90;;;;;;483007;245;27518;-75
2022/12/27 00:49:28;;;;;;;11.90;2.10;;;3.00;99.90;;;;;;483118;245;27519;-74
2022/12/27 00:51:29;;;;;;;3.30;2.42;;;3.10;99.90;;;;;;483101;245;27499;-75
2022/12/27 00:53:31;;;;;;;5.12;1.90;;;2.90;99.90;;;;;;483070;245;27585;-74
2022/12/27 00:55:32;;;;;;;3.75;1.90;;;3.00;99.90;;;;;;483050;245;27507;-74
2022/12/27 00:57:33;;;;;;;2.35;1.85;;;3.00;99.90;;;;;;483022;245;27586;-74
2022/12/27 00:59:34;;;;;;;3.75;2.08;;;2.90;99.90;;;;;;483057;245;27563;-75
2022/12/27 01:01:36;;;;;;;7.03;2.40;;;2.90;99.90;;;;;;483039;245;27950;-75
2022/12/27 01:03:37;;;;;;;4.47;2.22;;;2.90;99.90;;;;;;483057;245;28102;-75
2022/12/27 01:05:38;;;;;;;1.70;1.60;;;2.90;99.90;;;;;;483048;245;29030;-74
2022/12/27 01:07:39;;;;;;;3.03;2.60;;;2.90;99.90;;;;;;483042;245;28017;-74
2022/12/27 01:09:41;;;;;;;4.97;2.40;;;2.90;99.90;;;;;;483079;245;27542;-76
2022/12/27 01:11:42;;;;;;;6.05;2.05;;;2.90;99.90;;;;;;483068;245;27578;-76
2022/12/27 01:13:43;;;;;;;8.80;2.60;;;2.90;99.90;;;;;;483095;245;27666;-75
2022/12/27 01:15:44;;;;;;;6.72;2.20;;;2.90;99.90;;;;;;483072;245;27569;-74
2022/12/27 01:17:46;;;;;;;5.12;2.30;;;2.90;99.90;;;;;;483072;245;27515;-76
2022/12/27 01:19:47;;;;;;;3.97;2.45;;;3.00;99.90;;;;;;483101;245;27875;-76
2022/12/27 01:21:48;;;;;;;8.70;2.97;;;2.90;99.90;;;;;;483102;245;27511;-75
2022/12/27 01:23:49;;;;;;;3.58;2.33;;;2.90;99.90;;;;;;483090;245;27638;-75
2022/12/27 01:25:51;;;;;;;6.60;2.53;;;2.90;99.90;;;;;;483067;245;27496;-75
2022/12/27 01:27:52;;;;;;;2.85;2.33;;;2.90;99.90;;;;;;483076;245;27530;-75
2022/12/27 01:29:53;;;;;;;3.00;2.20;;;2.90;99.90;;;;;;483088;245;28107;-75
2022/12/27 01:31:54;;;;;;;3.80;2.35;;;2.90;99.90;;;;;;483079;245;27971;-75
2022/12/27 01:33:56;;;;;;;10.50;2.17;;;2.90;99.90;;;;;;483085;245;28025;-77
2022/12/27 01:35:57;;;;;;;2.25;2.00;;;2.90;99.90;;;;;;483071;245;28058;-75
2022/12/27 01:37:58;;;;;;;6.30;2.00;;;2.90;99.90;;;;;;483047;245;27535;-74
2022/12/27 01:39:59;;;;;;;4.62;2.70;;;2.90;99.90;;;;;;483083;245;27603;-76
2022/12/27 01:44:20;;;;;;;7.75;3.47;;;2.90;99.90;;;;;;483050;246;27634;-77
2022/12/27 01:46:21;;;;;;;5.85;2.03;;;2.90;99.90;;;;;;483032;245;27502;-77
2022/12/27 01:48:23;;;;;;;5.47;3.15;;;2.90;99.90;;;;;;483056;245;27492;-76
2022/12/27 01:50:24;;;;;;;4.15;2.80;;;2.90;99.90;;;;;;483078;245;27551;-77
2022/12/27 01:52:25;;;;;;;5.78;2.50;;;2.90;99.90;;;;;;483061;245;27960;-76
2022/12/27 01:54:26;;;;;;;4.97;2.40;;;2.90;99.90;;;;;;483032;244;28092;-76
2022/12/27 01:56:28;;;;;;;4.68;2.40;;;2.90;99.90;;;;;;483071;245;28695;-75
2022/12/27 01:58:29;;;;;;;7.45;2.80;;;2.90;99.90;;;;;;482862;245;28025;-75
2022/12/27 02:00:30;;;;;;;7.45;3.22;;;2.90;99.90;;;;;;483053;245;27512;-76
2022/12/27 02:02:31;;;;;;;3.50;2.50;;;2.90;99.90;;;;;;483047;245;27475;-75
2022/12/27 02:04:33;;;;;;;5.05;2.70;;;2.90;99.90;;;;;;483013;245;27511;-76
2022/12/27 02:06:34;;;;;;;3.70;2.50;;;2.90;99.90;;;;;;483006;245;27587;-75
2022/12/27 02:08:35;;;;;;;6.95;3.10;;;2.90;99.90;;;;;;483079;245;27482;-75
2022/12/27 02:10:36;;;;;;;4.47;2.70;;;2.90;99.90;;;;;;483072;245;27523;-75
2022/12/27 02:12:38;;;;;;;7.97;3.05;;;2.90;99.90;;;;;;483050;244;27500;-76
2022/12/27 02:14:39;;;;;;;6.93;2.80;;;2.90;99.90;;;;;;483053;245;27517;-76
2022/12/27 02:16:40;;;;;;;5.07;2.55;;;2.90;99.90;;;;;;483054;245;27492;-76
2022/12/27 02:18:41;;;;;;;5.53;2.87;;;2.90;99.90;;;;;;478426;235;27551;-76
2022/12/27 02:20:43;;;;;;;7.95;3.03;;;2.90;99.90;;;;;;460659;258;27564;-76
2022/12/27 02:25:03;;;;;;;6.22;2.85;;;2.90;99.90;;;;;;460535;258;27523;-75
2022/12/27 02:27:05;;;;;;;9.70;2.80;;;2.80;99.90;;;;;;460706;258;27615;-75
2022/12/27 02:29:06;;;;;;;3.20;2.90;;;2.90;99.90;;;;;;460718;258;27550;-75
2022/12/27 02:31:07;;;;;;;6.10;2.75;;;2.90;99.90;;;;;;460712;258;27499;-75
2022/12/27 02:33:09;;;;;;;8.20;2.70;;;2.90;99.90;;;;;;460674;258;27580;-75
2022/12/27 02:35:10;;;;;;;5.03;2.87;;;2.90;99.90;;;;;;460643;258;27954;-76
2022/12/27 02:37:11;;;;;;;5.90;2.85;;;2.90;99.90;;;;;;460685;258;27526;-77
2022/12/27 02:39:12;;;;;;;4.43;2.50;;;2.90;99.90;;;;;;460716;258;27521;-75
2022/12/27 02:53:03;;;;;;;4.65;2.37;;;2.90;99.90;;;;;;460756;253;27550;-76
2022/12/27 02:55:04;;;;;;;3.70;2.50;;;2.90;99.90;;;;;;460708;258;27507;-75
2022/12/27 02:57:09;;;;;;;6.18;3.03;;;2.90;99.90;;;;;;460734;253;27503;-74
2022/12/27 02:59:10;;;;;;;6.00;3.20;;;3.00;99.90;;;;;;460717;258;27529;-77
2022/12/27 03:03:31;;;;;;;7.32;3.37;;;3.10;99.90;;;;;;460752;258;27550;-75
2022/12/27 03:05:32;;;;;;;9.85;3.20;;;3.20;99.90;;;;;;460711;258;27515;-76
2022/12/27 03:07:33;;;;;;;6.32;2.33;;;3.20;99.90;;;;;;460690;258;27581;-75
2022/12/27 03:16:21;;;;;;;5.35;3.05;;;3.30;99.90;;;;;;460717;258;27515;-76
2022/12/27 03:18:22;;;;;;;3.10;2.50;;;3.30;99.90;;;;;;460692;258;27626;-76
2022/12/27 03:27:27;;;;;;;6.05;2.90;;;3.40;99.90;;;;;;460731;258;27582;-75
2022/12/27 03:34:30;;;;;;;5.50;2.62;;;3.40;99.90;;;;;;460741;258;27594;-76
2022/12/27 03:38:24;;;;;;;6.85;3.08;;;3.30;99.90;;;;;;460736;258;27610;-75
2022/12/27 03:40:26;;;;;;;21.85;3.22;;;3.30;99.90;;;;;;460722;258;27551;-76
2022/12/27 03:44:47;;;;;;;4.93;2.40;;;3.20;99.90;;;;;;460709;258;27518;-76
2022/12/27 03:46:48;;;;;;;8.18;3.00;;;3.20;99.90;;;;;;460732;258;27490;-74
2022/12/27 03:48:49;;;;;;;4.93;2.30;;;3.20;99.90;;;;;;460019;258;27510;-75
2022/12/27 03:50:50;;;;;;;4.68;2.65;;;3.10;99.90;;;;;;460734;258;27467;-76
2022/12/27 03:52:52;;;;;;;5.50;3.17;;;3.10;99.90;;;;;;460736;258;27590;-77
2022/12/27 03:54:53;;;;;;;7.15;2.75;;;3.10;99.90;;;;;;460757;254;28010;-76
2022/12/27 03:56:54;;;;;;;6.70;2.85;;;3.10;99.90;;;;;;460687;250;28107;-74
2022/12/27 03:58:55;;;;;;;6.72;3.03;;;3.00;99.90;;;;;;460719;258;28083;-76
2022/12/27 04:00:57;;;;;;;6.10;2.80;;;3.00;99.90;;;;;;460697;258;27904;-75
2022/12/27 04:02:58;;;;;;;7.10;2.85;;;3.00;99.90;;;;;;460729;258;27561;-74
2022/12/27 04:04:59;;;;;;;3.37;2.75;;;3.00;99.90;;;;;;460734;254;27505;-77
2022/12/27 04:07:00;;;;;;;6.82;2.80;;;3.00;99.90;;;;;;460720;258;27550;-75
2022/12/27 04:34:43;;;;;;;5.15;2.40;;;2.70;99.90;;;;;;460755;258;27459;-75
2022/12/27 04:36:44;;;;;;;6.37;2.80;;;2.70;99.90;;;;;;460709;258;28012;-76
2022/12/27 04:38:45;;;;;;;2.53;2.17;;;2.60;99.90;;;;;;460747;258;29070;-75
2022/12/27 04:54:57;;;;;;;7.15;3.05;;;2.60;99.90;;;;;;460741;258;27525;-76
2022/12/27 04:56:58;;;;;;;7.05;3.47;;;2.50;99.90;;;;;;460730;254;28014;-77
2022/12/27 05:03:39;;;;;;;4.75;3.42;;;2.50;99.90;;;;;;460739;258;28012;-76
2022/12/27 05:05:40;;;;;;;7.40;3.03;;;2.50;99.90;;;;;;460682;258;27521;-75
2022/12/27 05:14:40;;;;;;;8.27;3.70;;;2.50;99.90;;;;;;460747;258;27479;-75
2022/12/27 05:16:41;;;;;;;10.07;3.60;;;2.40;99.90;;;;;;460716;258;27545;-76
2022/12/27 05:18:42;;;;;;;10.38;3.42;;;2.40;99.90;;;;;;460700;258;27450;-76
2022/12/27 05:20:43;;;;;;;14.25;4.10;;;2.40;99.90;;;;;;460695;258;27624;-78
2022/12/27 05:27:24;;;;;;;6.68;3.10;;;2.50;99.90;;;;;;460746;258;27590;-76
2022/12/27 05:29:26;;;;;;;14.32;4.45;;;2.50;99.90;;;;;;460768;258;27978;-76
2022/12/27 05:31:26;;;;;;;7.15;3.60;;;2.50;99.90;;;;;;460734;258;27479;-76
2022/12/27 05:33:27;;;;;;;7.25;3.67;;;2.50;99.90;;;;;;460746;258;27521;-76
2022/12/27 05:35:29;;;;;;;4.22;3.65;;;2.60;99.90;;;;;;460719;258;27549;-76
2022/12/27 05:37:30;;;;;;;7.93;4.30;;;2.60;99.90;;;;;;460716;258;27521;-75
2022/12/27 05:39:31;;;;;;;7.97;4.93;;;2.60;99.90;;;;;;460705;258;27568;-77
2022/12/27 05:41:32;;;;;;;7.00;4.10;;;2.50;99.90;;;;;;460750;258;28011;-76
2022/12/27 05:43:34;;;;;;;14.68;4.97;;;2.50;99.90;;;;;;460739;258;28061;-76
2022/12/27 05:45:35;;;;;;;18.58;4.53;;;2.60;99.90;;;;;;460736;258;27999;-76
2022/12/27 05:47:36;;;;;;;19.27;5.07;;;2.60;99.90;;;;;;460681;258;27493;-76
2022/12/27 05:49:37;;;;;;;8.10;4.90;;;2.60;99.90;;;;;;460724;258;27601;-76
2022/12/27 05:51:39;;;;;;;11.20;5.35;;;2.60;99.90;;;;;;460745;258;27543;-76
2022/12/27 05:53:40;;;;;;;12.37;6.00;;;2.70;99.90;;;;;;460725;258;27503;-78
2022/12/27 05:55:41;;;;;;;7.82;5.37;;;2.70;99.90;;;;;;460716;258;27586;-76
2022/12/27 05:57:42;;;;;;;12.23;6.28;;;2.70;99.90;;;;;;460725;258;27514;-77
2022/12/27 05:59:44;;;;;;;12.20;6.85;;;2.80;99.90;;;;;;460743;258;27473;-76
2022/12/27 06:01:45;;;;;;;13.07;7.57;;;2.80;99.90;;;;;;460737;258;27570;-77
2022/12/27 06:03:46;;;;;;;17.15;7.37;;;2.80;99.90;;;;;;460720;254;27972;-77
2022/12/27 06:05:47;;;;;;;13.85;7.07;;;2.70;99.90;;;;;;460713;258;28023;-75
2022/12/27 06:07:49;;;;;;;16.70;6.85;;;2.70;99.90;;;;;;460738;258;29188;-77
2022/12/27 06:09:50;;;;;;;11.30;7.18;;;2.80;99.90;;;;;;460742;258;27510;-76
2022/12/27 06:11:51;;;;;;;10.23;6.28;;;2.80;99.90;;;;;;460741;254;27509;-77
2022/12/27 06:13:52;;;;;;;11.15;6.47;;;2.80;99.90;;;;;;460738;258;27621;-75
2022/12/27 06:15:54;;;;;;;14.55;6.32;;;2.80;99.90;;;;;;460738;258;27742;-75
2022/12/27 06:17:55;;;;;;;18.73;8.80;;;2.80;99.90;;;;;;460729;258;27509;-77
2022/12/27 06:19:56;;;;;;;12.52;6.80;;;2.80;99.90;;;;;;460764;253;27969;-75
2022/12/27 06:21:57;;;;;;;9.60;5.15;;;2.80;99.90;;;;;;460727;258;27479;-76
2022/12/27 06:23:59;;;;;;;7.40;4.85;;;2.80;99.90;;;;;;460741;258;27993;-76
2022/12/27 06:26:00;;;;;;;12.57;5.80;;;2.80;99.90;;;;;;460695;258;28062;-76
2022/12/27 06:28:01;;;;;;;20.55;7.30;;;2.80;99.90;;;;;;460674;258;28003;-76
2022/12/27 06:30:03;;;;;;;9.48;5.57;;;2.80;99.90;;;;;;460666;258;27515;-75
2022/12/27 06:32:04;;;;;;;11.30;6.15;;;2.80;99.90;;;;;;460655;258;27566;-76
2022/12/27 06:34:05;;;;;;;19.25;6.35;;;2.80;99.90;;;;;;460735;258;27539;-78
2022/12/27 06:36:06;;;;;;;12.05;6.55;;;2.90;99.90;;;;;;460732;258;27534;-75
2022/12/27 06:38:08;;;;;;;7.40;6.07;;;2.90;99.90;;;;;;460691;258;27555;-76
2022/12/27 06:40:09;;;;;;;7.65;5.28;;;2.90;99.90;;;;;;460738;258;27921;-77
2022/12/27 06:42:10;;;;;;;12.60;5.62;;;2.90;99.90;;;;;;460724;258;27578;-77
2022/12/27 06:44:11;;;;;;;9.93;6.43;;;2.90;99.90;;;;;;460716;253;27489;-75
2022/12/27 06:46:13;;;;;;;13.13;5.70;;;2.90;99.90;;;;;;460699;258;27474;-75
2022/12/27 06:48:14;;;;;;;10.98;5.82;;;2.80;99.90;;;;;;460703;258;27998;-76
2022/12/27 06:50:15;;;;;;;11.50;5.75;;;2.90;99.90;;;;;;460685;258;28051;-75
2022/12/27 06:52:16;;;;;;;9.88;5.55;;;2.90;99.90;;;;;;460712;258;27470;-76
2022/12/27 06:54:18;;;;;;;8.95;5.95;;;2.90;99.90;;;;;;460690;258;27498;-77
2022/12/27 06:56:19;;;;;;;11.48;6.47;;;2.80;99.90;;;;;;460712;258;27461;-76
2022/12/27 06:58:20;;;;;;;10.43;6.80;;;2.80;99.90;;;;;;460704;254;27646;-76
2022/12/27 07:00:21;;;;;;;9.50;6.45;;;2.80;99.90;;;;;;460748;258;27942;-76
2022/12/27 07:02:23;;;;;;;10.82;6.12;;;2.80;99.90;;;;;;460744;258;27471;-76
2022/12/27 07:04:24;;;;;;;11.95;6.22;;;2.80;99.90;;;;;;460705;258;27557;-76
2022/12/27 07:06:25;;;;;;;13.02;5.90;;;2.80;99.90;;;;;;460712;258;27537;-76
2022/12/27 07:08:26;;;;;;;10.80;6.35;;;2.80;99.90;;;;;;460689;258;27626;-77
2022/12/27 07:10:28;;;;;;;12.85;7.15;;;2.70;99.90;;;;;;460719;258;27998;-76
2022/12/27 07:12:29;;;;;;;12.02;6.28;;;2.70;99.90;;;;;;460702;258;29028;-76
2022/12/27 07:14:30;;;;;;;14.07;5.90;;;2.70;99.90;;;;;;460676;258;27582;-77
2022/12/27 07:16:31;;;;;;;11.50;5.32;;;2.70;99.90;;;;;;460709;258;27502;-75
2022/12/27 07:18:33;;;;;;;11.20;6.12;;;2.70;99.90;;;;;;460693;258;27513;-78
2022/12/27 07:20:34;;;;;;;13.32;5.70;;;2.70;99.90;;;;;;460728;258;27578;-76
2022/12/27 07:22:35;;;;;;;10.75;6.00;;;2.70;99.90;;;;;;460682;258;27513;-77
2022/12/27 07:24:36;;;;;;;13.38;5.68;;;2.70;99.90;;;;;;460718;258;27968;-76
2022/12/27 07:26:38;;;;;;;11.77;5.85;;;2.70;99.90;;;;;;460675;258;27471;-77
2022/12/27 07:28:39;;;;;;;11.65;5.82;;;2.70;99.90;;;;;;460739;258;27458;-76
2022/12/27 07:30:40;;;;;;;11.02;5.65;;;2.70;99.90;;;;;;460700;258;27997;-76
2022/12/27 07:32:41;;;;;;;11.55;6.25;;;2.70;99.90;;;;;;460724;258;29017;-77
2022/12/27 07:34:43;;;;;;;10.13;5.78;;;2.70;99.90;;;;;;460695;258;27497;-75
2022/12/27 07:36:44;;;;;;;11.73;6.37;;;2.70;99.90;;;;;;460721;258;27500;-77
2022/12/27 07:38:45;;;;;;;11.98;5.45;;;2.70;99.90;;;;;;460732;258;27501;-76
2022/12/27 07:40:46;;;;;;;10.63;5.22;;;2.70;99.90;;;;;;460723;258;27514;-76
2022/12/27 07:42:48;;;;;;;11.98;6.00;;;2.80;99.90;;;;;;460734;258;27566;-80
2022/12/27 07:44:49;;;;;;;8.95;5.15;;;2.80;99.90;;;;;;460738;258;27599;-79
2022/12/27 07:46:51;;;;;;;9.05;5.97;;;2.80;99.90;;;;;;460735;258;27702;-76
2022/12/27 07:48:51;;;;;;;7.70;4.85;;;2.90;99.90;;;;;;460713;258;27482;-75
2022/12/27 07:50:53;;;;;;;9.82;5.80;;;2.90;99.90;;;;;;460746;258;28068;-76
2022/12/27 07:52:54;;;;;;;10.10;5.70;;;2.90;99.90;;;;;;460695;258;27945;-77
2022/12/27 07:54:55;;;;;;;9.15;4.82;;;2.90;99.90;;;;;;460730;258;28095;-75
2022/12/27 07:56:56;;;;;;;15.20;5.68;;;3.00;99.90;;;;;;460746;258;29095;-77
2022/12/27 07:58:58;;;;;;;8.85;4.57;;;3.00;99.90;;;;;;460766;258;27546;-75
2022/12/27 08:00:59;;;;;;;8.88;4.95;;;2.90;99.90;;;;;;460727;258;27582;-76
2022/12/27 08:03:00;;;;;;;8.00;5.00;;;2.90;99.90;;;;;;460732;258;27546;-77
2022/12/27 08:05:01;;;;;;;11.48;5.82;;;2.90;99.90;;;;;;460739;258;27577;-75
2022/12/27 08:07:03;;;;;;;7.75;4.40;;;2.90;99.90;;;;;;460728;258;27605;-77
2022/12/27 08:09:04;;;;;;;7.20;5.00;;;2.90;99.90;;;;;;460761;254;27490;-76
2022/12/27 08:11:05;;;;;;;12.52;4.97;;;3.00;99.90;;;;;;460749;258;27510;-76
2022/12/27 08:13:06;;;;;;;10.55;4.90;;;3.00;99.90;;;;;;460738;258;27462;-77
2022/12/27 08:15:08;;;;;;;7.80;4.62;;;3.00;99.90;;;;;;460716;258;27978;-77
2022/12/27 08:17:09;;;;;;;6.68;4.50;;;3.00;99.90;;;;;;460731;258;28128;-76
2022/12/27 08:19:10;;;;;;;8.32;4.20;;;3.00;99.90;;;;;;460726;258;27949;-76
2022/12/27 08:21:11;;;;;;;8.50;5.03;;;3.10;99.90;;;;;;460714;258;29159;-76
2022/12/27 08:23:13;;;;;;;9.90;4.03;;;3.00;99.90;;;;;;460685;258;27542;-77
2022/12/27 08:25:14;;;;;;;10.82;4.68;;;3.10;99.90;;;;;;460742;258;27470;-76
2022/12/27 08:27:15;;;;;;;6.22;4.05;;;3.20;99.90;;;;;;460753;253;27591;-76
2022/12/27 08:29:16;;;;;;;7.07;3.70;;;3.20;99.90;;;;;;460745;258;27549;-76
2022/12/27 08:31:18;;;;;;;12.18;4.50;;;3.30;99.90;;;;;;460718;258;27493;-75
2022/12/27 08:33:19;;;;;;;10.25;4.37;;;3.30;99.90;;;;;;460663;253;27543;-76
2022/12/27 08:35:20;;;;;;;8.30;3.75;;;3.40;99.90;;;;;;460754;258;27521;-75
2022/12/27 08:37:21;;;;;;;8.63;4.15;;;3.40;99.90;;;;;;460748;258;27517;-78
2022/12/27 08:39:23;;;;;;;8.73;3.90;;;3.40;99.90;;;;;;466901;236;27446;-75
2022/12/27 08:41:24;;;;;;;10.90;4.32;;;3.50;99.90;;;;;;468157;253;28042;-80
2022/12/27 08:43:25;;;;;;;7.60;4.20;;;3.50;99.90;;;;;;468135;253;28902;-76
2022/12/27 08:45:26;;;;;;;8.18;3.90;;;3.50;99.90;;;;;;468163;253;27890;-75
2022/12/27 08:47:28;;;;;;;10.05;4.30;;;3.60;99.90;;;;;;468196;253;27922;-75
2022/12/27 08:49:29;;;;;;;7.85;4.05;;;3.60;99.90;;;;;;468237;253;27418;-75
2022/12/27 08:51:30;;;;;;;6.78;3.80;;;3.70;99.90;;;;;;468301;253;27436;-76
2022/12/27 08:53:31;;;;;;;6.20;4.15;;;3.60;99.90;;;;;;468338;253;27445;-75
2022/12/27 08:55:33;;;;;;;7.97;4.40;;;3.70;99.90;;;;;;468310;253;27445;-77
2022/12/27 08:57:34;;;;;;;8.43;3.87;;;3.80;99.90;;;;;;468273;253;27484;-75
2022/12/27 08:59:35;;;;;;;5.70;3.70;;;3.80;99.90;;;;;;468255;253;27561;-75
2022/12/27 09:01:36;;;;;;;7.30;4.15;;;3.90;99.90;;;;;;468246;253;27495;-75
2022/12/27 09:03:38;;;;;;;11.63;3.70;;;3.90;99.90;;;;;;468273;253;27545;-75
2022/12/27 09:05:39;;;;;;;5.40;3.42;;;4.00;99.90;;;;;;468270;253;27885;-76
2022/12/27 09:07:40;;;;;;;4.57;3.55;;;4.00;99.90;;;;;;468277;253;27948;-74
2022/12/27 09:09:41;;;;;;;9.32;3.65;;;4.00;99.90;;;;;;468247;252;27982;-74
2022/12/27 09:11:43;;;;;;;7.45;3.65;;;4.00;99.90;;;;;;468256;253;27452;-75
2022/12/27 09:13:44;;;;;;;5.68;3.35;;;4.10;99.90;;;;;;468256;253;27454;-75
2022/12/27 09:15:45;;;;;;;7.43;3.78;;;4.10;99.90;;;;;;468255;253;27456;-75
2022/12/27 09:17:46;;;;;;;9.13;3.83;;;4.10;99.90;;;;;;468267;253;27458;-75
2022/12/27 09:19:48;;;;;;;8.07;3.35;;;4.10;99.90;;;;;;468219;253;27537;-74
2022/12/27 09:21:49;;;;;;;6.32;3.70;;;4.20;99.90;;;;;;468226;253;27535;-75
2022/12/27 09:23:50;;;;;;;8.45;4.20;;;4.20;99.90;;;;;;468247;253;27599;-75
2022/12/27 09:25:51;;;;;;;6.57;3.65;;;4.20;99.90;;;;;;468267;253;27429;-74
2022/12/27 09:27:53;;;;;;;6.72;3.72;;;4.30;99.90;;;;;;467244;253;47910;-75
2022/12/27 09:29:54;;;;;;;6.45;3.50;;;4.40;99.90;;;;;;468266;253;27948;-80
2022/12/27 09:31:55;;;;;;;8.65;3.22;;;4.40;99.90;;;;;;468256;253;27971;-79
2022/12/27 09:33:56;;;;;;;9.90;3.80;;;4.40;99.90;;;;;;468272;253;27483;-79
2022/12/27 09:35:58;;;;;;;7.47;3.37;;;4.40;99.90;;;;;;468276;253;27521;-74
2022/12/27 09:37:59;;;;;;;5.47;3.25;;;4.50;99.90;;;;;;468266;253;27579;-79
2022/12/27 09:40:00;;;;;;;6.90;3.42;;;4.50;99.90;;;;;;468243;253;27414;-79
2022/12/27 09:42:02;;;;;;;4.72;3.45;;;4.50;99.90;;;;;;468266;253;27499;-79
2022/12/27 09:44:03;;;;;;;7.15;3.40;;;4.60;99.90;;;;;;468265;253;27421;-74
2022/12/27 09:46:04;;;;;;;6.87;3.22;;;4.60;99.90;;;;;;468275;253;27523;-75
2022/12/27 09:48:06;;;;;;;7.65;3.20;;;4.60;99.90;;;;;;468227;253;27964;-75
2022/12/27 09:50:07;;;;;;;5.57;3.15;;;4.60;99.90;;;;;;468221;253;27976;-74
2022/12/27 09:52:08;;;;;;;6.70;3.40;;;4.60;99.90;;;;;;468248;253;28050;-76
2022/12/27 09:54:09;;;;;;;14.05;3.95;;;4.70;99.90;;;;;;468253;253;27440;-75
2022/12/27 09:56:10;;;;;;;9.88;3.53;;;4.70;99.90;;;;;;468276;253;27438;-80
2022/12/27 09:58:12;;;;;;;5.47;2.87;;;4.70;99.90;;;;;;468229;253;27630;-76
2022/12/27 10:00:13;;;;;;;6.07;3.00;;;4.70;99.90;;;;;;468237;253;27496;-75
2022/12/27 10:02:14;;;;;;;12.02;3.47;;;4.80;99.90;;;;;;468216;253;27460;-74
2022/12/27 10:04:16;;;;;;;7.60;3.65;;;4.80;99.90;;;;;;468221;253;27458;-75
2022/12/27 10:06:17;;;;;;;25.75;3.00;;;4.70;99.90;;;;;;468229;253;27897;-74
2022/12/27 10:08:18;;;;;;;9.98;3.55;;;4.80;99.90;;;;;;468253;253;28042;-80
2022/12/27 10:10:19;;;;;;;3.95;2.60;;;4.90;99.90;;;;;;468248;253;27418;-75
2022/12/27 10:12:20;;;;;;;7.93;3.25;;;4.80;99.90;;;;;;468238;253;27532;-74
2022/12/27 10:14:22;;;;;;;7.05;3.45;;;4.80;99.90;;;;;;468228;253;27422;-76
2022/12/27 10:16:23;;;;;;;4.80;3.15;;;4.80;99.90;;;;;;468259;253;27437;-75
2022/12/27 10:18:24;;;;;;;9.55;2.92;;;4.80;99.90;;;;;;468176;253;27496;-81
2022/12/27 10:20:25;;;;;;;6.45;3.75;;;4.90;99.90;;;;;;459615;258;27500;-79
2022/12/27 10:22:27;;;;;;;13.65;3.65;;;5.00;99.90;;;;;;462656;256;28212;-79
2022/12/27 10:24:28;;;;;;;8.88;3.10;;;5.00;99.90;;;;;;468309;254;28054;-77
2022/12/27 10:26:29;;;;;;;6.15;3.30;;;4.80;99.90;;;;;;463414;252;27471;-74
2022/12/27 10:28:30;;;;;;;8.63;3.90;;;4.90;99.90;;;;;;463317;256;27585;-81
2022/12/27 10:30:32;;;;;;;6.60;3.40;;;4.90;99.90;;;;;;467486;254;27521;-76
2022/12/27 10:32:33;;;;;;;4.40;2.70;;;4.90;99.90;;;;;;462827;256;27677;-75
2022/12/27 10:34:34;;;;;;;7.57;2.83;;;4.90;99.90;;;;;;468433;254;27502;-76
2022/12/27 10:36:35;;;;;;;9.65;3.45;;;4.80;99.90;;;;;;463419;256;27583;-79
2022/12/27 10:38:37;;;;;;;5.50;2.65;;;4.80;99.90;;;;;;463456;256;28005;-77
2022/12/27 10:40:38;;;;;;;5.60;2.95;;;4.90;99.90;;;;;;467445;254;27921;-79
2022/12/27 10:42:40;;;;;;;8.80;3.20;;;4.90;99.90;;;;;;462835;256;27609;-79
2022/12/27 10:44:40;;;;;;;4.68;3.08;;;4.90;99.90;;;;;;468423;254;27531;-79
2022/12/27 10:46:42;;;;;;;9.35;3.37;;;5.00;99.90;;;;;;463469;256;27455;-79
2022/12/27 10:48:43;;;;;;;4.82;2.50;;;5.10;99.90;;;;;;463477;256;27483;-80
2022/12/27 10:50:44;;;;;;;10.20;3.50;;;5.10;99.90;;;;;;467487;254;27430;-76
2022/12/27 10:52:45;;;;;;;8.07;3.37;;;5.00;99.90;;;;;;462853;256;28155;-75
2022/12/27 10:54:47;;;;;;;6.87;3.10;;;5.10;99.90;;;;;;468490;254;28365;-79
2022/12/27 10:56:48;;;;;;;9.73;3.08;;;5.20;99.90;;;;;;463433;256;27934;-75
2022/12/27 10:58:49;;;;;;;6.12;3.15;;;5.40;99.90;;;;;;463423;255;27582;-77
2022/12/27 11:00:50;;;;;;;4.10;2.92;;;5.40;99.90;;;;;;463465;256;27438;-75
2022/12/27 11:02:52;;;;;;;10.95;3.20;;;5.40;99.90;;;;;;468430;254;27553;-76
2022/12/27 11:04:53;;;;;;;10.73;3.10;;;5.50;99.90;;;;;;463414;256;27539;-76
2022/12/27 11:06:54;;;;;;;8.85;3.30;;;5.50;99.90;;;;;;463471;256;27478;-75
2022/12/27 11:08:56;;;;;;;7.47;3.20;;;5.50;99.90;;;;;;468363;254;28042;-76
2022/12/27 11:10:57;;;;;;;6.28;2.62;;;5.50;99.90;;;;;;463428;256;27467;-76
2022/12/27 11:12:58;;;;;;;4.00;2.55;;;5.50;99.90;;;;;;463517;254;27480;-80
2022/12/27 11:14:59;;;;;;;12.55;2.92;;;5.40;99.90;;;;;;467465;254;27517;-78
2022/12/27 11:17:01;;;;;;;6.40;2.65;;;5.30;99.90;;;;;;462836;256;27630;-76
2022/12/27 11:19:02;;;;;;;6.12;2.08;;;5.30;99.90;;;;;;468528;254;27632;-81
2022/12/27 11:21:03;;;;;;;6.68;2.65;;;5.30;99.90;;;;;;463477;256;27927;-80
2022/12/27 11:23:04;;;;;;;6.00;2.78;;;5.30;99.90;;;;;;463461;256;28069;-80
2022/12/27 11:25:06;;;;;;;5.37;2.15;;;5.40;99.90;;;;;;468426;254;28141;-75
2022/12/27 11:27:07;;;;;;;7.10;2.75;;;5.40;99.90;;;;;;463408;252;27467;-80
2022/12/27 11:29:08;;;;;;;9.10;2.85;;;5.50;99.90;;;;;;463450;255;27487;-77
2022/12/27 11:31:09;;;;;;;7.75;2.40;;;5.50;99.90;;;;;;463466;256;27546;-75
2022/12/27 11:33:11;;;;;;;7.07;2.80;;;5.50;99.90;;;;;;467440;254;27552;-79
2022/12/27 11:35:12;;;;;;;7.60;2.47;;;5.40;99.90;;;;;;462835;256;27563;-79
2022/12/27 11:37:14;;;;;;;6.97;2.58;;;5.30;99.90;;;;;;468447;254;27946;-75
2022/12/27 11:39:14;;;;;;;6.57;2.47;;;5.20;99.90;;;;;;463392;256;27949;-79
2022/12/27 11:41:16;;;;;;;5.53;2.35;;;5.20;99.90;;;;;;463450;256;27509;-79
2022/12/27 11:43:18;;;;;;;6.68;2.80;;;5.30;99.90;;;;;;467447;253;27480;-79
2022/12/27 11:45:18;;;;;;;7.85;3.20;;;5.30;99.90;;;;;;462793;256;28023;-79
2022/12/27 11:47:19;;;;;;;6.28;2.42;;;5.30;99.90;;;;;;468464;248;27530;-79
2022/12/27 11:49:21;;;;;;;8.02;2.90;;;5.30;99.90;;;;;;463428;256;27494;-80
2022/12/27 11:51:22;;;;;;;5.60;2.67;;;5.30;99.90;;;;;;463472;256;27914;-75
2022/12/27 11:53:23;;;;;;;6.28;2.65;;;5.30;99.90;;;;;;467417;254;28046;-76
2022/12/27 11:55:24;;;;;;;8.77;2.92;;;5.30;99.90;;;;;;462835;256;27592;-76
2022/12/27 11:57:26;;;;;;;5.53;2.90;;;5.40;99.90;;;;;;468445;254;27555;-76
2022/12/27 11:59:27;;;;;;;7.35;3.83;;;5.30;99.90;;;;;;463398;256;27484;-76
2022/12/27 12:01:28;;;;;;;16.15;4.35;;;5.20;99.90;;;;;;463418;252;27456;-75
2022/12/27 12:03:30;;;;;;;9.70;3.62;;;5.10;99.90;;;;;;463451;256;27611;-75
2022/12/27 12:05:31;;;;;;;13.52;4.40;;;5.20;99.90;;;;;;468483;252;28133;-79
2022/12/27 12:07:32;;;;;;;6.60;3.10;;;5.30;99.90;;;;;;463439;256;27960;-76
2022/12/27 12:09:33;;;;;;;12.73;3.58;;;5.30;99.90;;;;;;463474;256;27590;-76
2022/12/27 12:11:35;;;;;;;9.43;3.92;;;5.30;99.90;;;;;;468457;254;27503;-74
2022/12/27 12:13:36;;;;;;;5.70;2.85;;;5.40;99.90;;;;;;463408;256;27479;-79
2022/12/27 12:15:37;;;;;;;7.25;3.83;;;5.40;99.90;;;;;;463462;255;27519;-79